Terminal Aerodrome Forecast
Issued by NWS Cleveland, OH

Home | Current Version | Previous Version | Graphics & Text | Print | Product List | Glossary On
Versions: 1 2 3 4 5 6 7 8 9 10 11 12 13 14 15 16 17 18 19 20 21 22 23 24
000
FTUS41 KCLE 121045 AAA
TAFYNG
TAF AMD
KYNG 121045Z 1211/1306 28012G18KT 1SM -SN OVC004
      TEMPO 1211/1215 3SM -SN OVC010
     FM121500 30015G25KT 5SM -SHSN OVC015
     FM121700 30018G28KT P6SM OVC025
     FM122200 30018G28KT 2SM -SHSN OVC012=

USA.gov is the U.S. government's official web portal to all federal, state and local government web resources and services.